createdAt,value
2023-11-01T00:00:37.671Z,64.23
2023-11-01T00:01:43.229Z,64.35
2023-11-01T00:02:48.917Z,64.15
2023-11-01T00:03:54.630Z,64.5
2023-11-01T00:05:00.184Z,64.21
2023-11-01T00:06:05.776Z,64.27
2023-11-01T00:07:11.300Z,64.46
2023-11-01T00:08:16.846Z,64.49
2023-11-01T00:09:22.313Z,64.43
2023-11-01T00:10:27.791Z,64.63
2023-11-01T00:11:33.365Z,64.75
2023-11-01T00:12:38.952Z,64.4
2023-11-01T00:13:44.465Z,64.61
2023-11-01T00:14:50.056Z,64.35
2023-11-01T00:15:56.001Z,64.39
2023-11-01T00:17:01.642Z,64.78
2023-11-01T00:18:07.336Z,64.75
2023-11-01T00:19:13.876Z,64.55
2023-11-01T00:20:19.419Z,64.87
2023-11-01T00:21:25.937Z,64.99
2023-11-01T00:22:31.377Z,64.54
2023-11-01T00:23:37.002Z,65.06
2023-11-01T00:24:47.204Z,64.71
2023-11-01T00:25:52.691Z,64.71
2023-11-01T00:26:58.161Z,64.43
2023-11-01T00:28:03.600Z,64.6
2023-11-01T00:29:09.177Z,64.5
2023-11-01T00:30:14.679Z,64.96
2023-11-01T00:31:20.170Z,64.59
2023-11-01T00:32:25.918Z,64.43
2023-11-01T00:33:31.763Z,65.04
2023-11-01T00:34:37.314Z,65
2023-11-01T00:35:43.142Z,65.16
2023-11-01T00:36:49.083Z,65
2023-11-01T00:37:54.589Z,64.7
2023-11-01T00:39:00.087Z,65.02
2023-11-01T00:40:05.704Z,64.68
2023-11-01T00:41:11.296Z,64.85
2023-11-01T00:42:16.796Z,65.39
2023-11-01T00:43:25.107Z,65.11
2023-11-01T00:44:30.604Z,64.96
2023-11-01T00:45:36.077Z,65.33
2023-11-01T00:46:41.658Z,64.91
2023-11-01T00:47:50.491Z,65.1
2023-11-01T00:48:56.028Z,65
2023-11-01T00:50:01.561Z,65.32
2023-11-01T00:51:07.063Z,65.01
2023-11-01T00:52:12.526Z,65.58
2023-11-01T00:53:18.133Z,65.3
2023-11-01T00:54:23.601Z,65.13
2023-11-01T00:55:29.120Z,65.59
2023-11-01T00:56:34.744Z,65.48
2023-11-01T00:57:40.218Z,65.16
2023-11-01T00:58:45.688Z,65.18
2023-11-01T00:59:51.151Z,65.31
2023-11-01T01:00:56.747Z,65.49
2023-11-01T01:02:02.312Z,65.6
2023-11-01T01:03:08.069Z,65.47
2023-11-01T01:04:14.066Z,65.54
2023-11-01T01:05:19.964Z,65.76
2023-11-01T01:06:25.444Z,65.58
2023-11-01T01:07:30.969Z,65.94
2023-11-01T01:08:36.561Z,65.93
2023-11-01T01:09:42.031Z,65.7
2023-11-01T01:10:47.496Z,65.78
2023-11-01T01:11:53.004Z,65.31
2023-11-01T01:12:58.443Z,65.9
2023-11-01T01:14:03.910Z,65.53
2023-11-01T01:15:09.417Z,65.39
2023-11-01T01:16:15.295Z,65.52
2023-11-01T01:17:21.049Z,65.58
2023-11-01T01:18:26.741Z,65.34
2023-11-01T01:19:32.287Z,65.19
2023-11-01T01:20:37.986Z,65.58
2023-11-01T01:21:43.545Z,65.27
2023-11-01T01:22:49.001Z,65.62
2023-11-01T01:23:54.528Z,65.43
2023-11-01T01:25:00.017Z,66.03
2023-11-01T01:26:05.531Z,65.84
2023-11-01T01:27:10.975Z,65.49
2023-11-01T01:28:16.405Z,66.05
2023-11-01T01:29:22.093Z,65.99
2023-11-01T01:30:27.580Z,65.85
2023-11-01T01:31:33.196Z,65.57
2023-11-01T01:32:39.110Z,65.76
2023-11-01T01:33:44.725Z,65.82
2023-11-01T01:34:50.229Z,65.82
2023-11-01T01:35:55.899Z,65.99
2023-11-01T01:37:01.439Z,65.93
2023-11-01T01:38:06.976Z,66.03
2023-11-01T01:39:12.479Z,66.27
2023-11-01T01:40:17.993Z,66.19
2023-11-01T01:41:23.560Z,66.27
2023-11-01T01:42:29.039Z,65.99
2023-11-01T01:43:34.723Z,66.55
2023-11-01T01:44:40.458Z,66.11
2023-11-01T01:45:46.075Z,65.96
2023-11-01T01:46:51.611Z,65.8
2023-11-01T01:47:57.314Z,65.65
2023-11-01T01:49:02.802Z,66.21
2023-11-01T01:50:08.334Z,65.99
2023-11-01T01:51:13.892Z,65.47
2023-11-01T01:52:19.593Z,65.55
2023-11-01T01:53:25.160Z,65.89
2023-11-01T01:54:30.671Z,66.1
2023-11-01T01:55:36.106Z,66.13
2023-11-01T01:56:41.678Z,65.94
2023-11-01T01:57:47.185Z,65.77
2023-11-01T01:58:52.661Z,66.4
2023-11-01T01:59:58.118Z,66.26
2023-11-01T02:01:03.650Z,66.27
2023-11-01T02:02:09.245Z,66.49
2023-11-01T02:03:15.132Z,65.99
2023-11-01T02:04:20.714Z,66.36
2023-11-01T02:05:26.276Z,66.56
2023-11-01T02:06:31.831Z,66.64
2023-11-01T02:07:37.376Z,66.4
2023-11-01T02:08:42.982Z,66
2023-11-01T02:09:48.453Z,66.46
2023-11-01T02:10:53.989Z,66.42
2023-11-01T02:11:59.580Z,66.63
2023-11-01T02:13:05.047Z,66.33
2023-11-01T02:14:10.606Z,66.56
2023-11-01T02:15:16.184Z,66.72
2023-11-01T02:16:21.819Z,66.01
2023-11-01T02:17:27.580Z,65.85
2023-11-01T02:18:33.188Z,66.64
2023-11-01T02:19:38.701Z,66.25
2023-11-01T02:20:44.296Z,65.88
2023-11-01T02:21:49.799Z,65.93
2023-11-01T02:22:55.299Z,66.16
2023-11-01T02:24:00.855Z,66.1
2023-11-01T02:25:06.361Z,66.42
2023-11-01T02:26:12.128Z,66.62
2023-11-01T02:27:17.632Z,65.87
2023-11-01T02:28:23.140Z,66.13
2023-11-01T02:29:28.751Z,65.78
2023-11-01T02:30:34.258Z,66.45
2023-11-01T02:31:40.019Z,66.1
2023-11-01T02:32:45.716Z,65.97
2023-11-01T02:33:51.234Z,66.27
2023-11-01T02:34:56.727Z,65.78
2023-11-01T02:36:02.244Z,65.98
2023-11-01T02:37:07.783Z,66.24
2023-11-01T02:38:13.413Z,65.7
2023-11-01T02:39:19.064Z,65.91
2023-11-01T02:40:25.629Z,65.71
2023-11-01T02:41:31.227Z,65.67
2023-11-01T02:42:36.828Z,65.66
2023-11-01T02:43:42.367Z,65.67
2023-11-01T02:44:47.884Z,65.73
2023-11-01T02:45:53.461Z,65.81
2023-11-01T02:46:58.947Z,65.7
2023-11-01T02:48:04.623Z,65.65
2023-11-01T02:49:10.182Z,65.7
2023-11-01T02:50:16.118Z,65.86
2023-11-01T02:51:21.702Z,65.93
2023-11-01T02:52:27.225Z,65.94
2023-11-01T02:53:32.846Z,66.18
2023-11-01T02:54:38.377Z,65.66
2023-11-01T02:55:43.909Z,65.58
2023-11-01T02:56:49.388Z,65.86
2023-11-01T02:57:54.894Z,65.75
2023-11-01T02:59:00.424Z,66.27
2023-11-01T03:00:05.953Z,66.1
2023-11-01T03:01:12.496Z,66.05
2023-11-01T03:02:18.093Z,65.74
2023-11-01T03:03:23.807Z,65.7
2023-11-01T03:04:29.711Z,65.87
2023-11-01T03:05:35.447Z,65.72
2023-11-01T03:06:41.032Z,65.82
2023-11-01T03:07:46.597Z,65.58
2023-11-01T03:08:52.339Z,65.87
2023-11-01T03:09:57.876Z,65.65
2023-11-01T03:11:03.451Z,65.83
2023-11-01T03:12:08.972Z,65.53
2023-11-01T03:13:14.478Z,65.95
2023-11-01T03:14:20.042Z,65.79
2023-11-01T03:15:25.543Z,65.56
2023-11-01T03:16:31.152Z,65.75
2023-11-01T03:17:36.967Z,65.44
2023-11-01T03:18:42.675Z,65.73
2023-11-01T03:19:48.177Z,65.9
2023-11-01T03:20:53.702Z,65.61
2023-11-01T03:21:59.734Z,65.79
2023-11-01T03:23:05.272Z,66.27
2023-11-01T03:24:10.792Z,66.29
2023-11-01T03:25:16.322Z,66.32
2023-11-01T03:26:21.866Z,66.35
2023-11-01T03:27:27.662Z,66.38
2023-11-01T03:28:33.354Z,66.34
2023-11-01T03:29:38.970Z,66.1
2023-11-01T03:30:44.491Z,65.83
2023-11-01T03:31:50.000Z,66.29
2023-11-01T03:32:55.675Z,66.42
2023-11-01T03:34:01.203Z,66.4
2023-11-01T03:35:06.816Z,65.88
2023-11-01T03:36:12.298Z,65.65
2023-11-01T03:37:17.811Z,65.82
2023-11-01T03:38:23.454Z,65.84
2023-11-01T03:39:28.967Z,66.01
2023-11-01T03:40:34.465Z,65.69
2023-11-01T03:41:40.045Z,65.51
2023-11-01T03:42:45.556Z,65.41
2023-11-01T03:43:51.082Z,65.52
2023-11-01T03:44:56.624Z,65.64
2023-11-01T03:46:02.176Z,65.49
2023-11-01T03:47:07.683Z,65.9
2023-11-01T03:48:13.563Z,66.25
2023-11-01T03:49:19.108Z,65.9
2023-11-01T03:50:24.600Z,65.77
2023-11-01T03:51:30.162Z,65.89
2023-11-01T03:52:35.743Z,66.26
2023-11-01T03:53:41.457Z,65.96
2023-11-01T03:54:47.003Z,66.18
2023-11-01T03:55:52.598Z,65.79
2023-11-01T03:56:58.097Z,65.95
2023-11-01T03:58:03.576Z,65.8
2023-11-01T03:59:09.258Z,65.78
2023-11-01T04:00:14.850Z,65.88
2023-11-01T04:01:20.520Z,66.17
2023-11-01T04:02:26.193Z,66.22
2023-11-01T04:03:32.004Z,66.34
2023-11-01T04:04:37.706Z,66.23
2023-11-01T04:05:43.403Z,66.06
2023-11-01T04:06:48.941Z,66.3
2023-11-01T04:07:54.452Z,66.23
2023-11-01T04:08:59.985Z,65.93
2023-11-01T04:10:05.506Z,65.88
2023-11-01T04:11:11.043Z,65.77
2023-11-01T04:12:16.527Z,66.19
2023-11-01T04:13:22.016Z,65.68
2023-11-01T04:14:27.627Z,66.09
2023-11-01T04:15:33.137Z,65.87
2023-11-01T04:16:38.704Z,66.26
2023-11-01T04:17:44.814Z,65.61
2023-11-01T04:18:50.348Z,65.54
2023-11-01T04:19:55.835Z,65.88
2023-11-01T04:21:01.346Z,65.62
2023-11-01T04:22:06.853Z,65.46
2023-11-01T04:23:12.427Z,65.95
2023-11-01T04:24:17.996Z,65.47
2023-11-01T04:25:23.487Z,65.46
2023-11-01T04:26:29.080Z,65.87
2023-11-01T04:27:34.611Z,65.6
2023-11-01T04:28:40.096Z,65.91
2023-11-01T04:29:45.821Z,65.83
2023-11-01T04:30:51.450Z,65.93
2023-11-01T04:31:57.259Z,65.53
2023-11-01T04:33:03.071Z,65.69
2023-11-01T04:34:08.602Z,65.65
2023-11-01T04:35:14.166Z,65.47
2023-11-01T04:36:19.705Z,65.44
2023-11-01T04:37:25.213Z,65.5
2023-11-01T04:38:30.886Z,65.81
2023-11-01T04:39:36.491Z,65.94
2023-11-01T04:40:41.994Z,66.12
2023-11-01T04:41:47.660Z,66.22
2023-11-01T04:42:53.174Z,65.9
2023-11-01T04:43:59.746Z,66.06
2023-11-01T04:45:05.238Z,66.31
2023-11-01T04:46:10.832Z,66.1
2023-11-01T04:47:17.584Z,65.88
2023-11-01T04:48:23.774Z,66.22
2023-11-01T04:49:29.353Z,65.91
2023-11-01T04:50:35.415Z,66.09
2023-11-01T04:51:41.413Z,66.06
2023-11-01T04:52:46.951Z,65.75
2023-11-01T04:53:52.582Z,65.8
2023-11-01T04:54:58.208Z,65.83
2023-11-01T04:56:03.765Z,65.64
2023-11-01T04:57:09.251Z,66.01
2023-11-01T04:58:14.761Z,65.86
2023-11-01T04:59:20.458Z,65.66
2023-11-01T05:00:26.006Z,65.76
2023-11-01T05:01:31.737Z,65.71
2023-11-01T05:02:37.629Z,65.75
2023-11-01T05:03:43.692Z,65.95
2023-11-01T05:04:49.233Z,66.28
2023-11-01T05:05:54.835Z,65.57
2023-11-01T05:07:00.375Z,65.87
2023-11-01T05:08:06.531Z,66.04
2023-11-01T05:09:12.135Z,65.91
2023-11-01T05:10:17.668Z,65.93
2023-11-01T05:11:23.324Z,65.87
2023-11-01T05:12:28.886Z,65.75
2023-11-01T05:13:34.441Z,65.4
2023-11-01T05:14:40.210Z,65.31
2023-11-01T05:15:45.823Z,65.05
2023-11-01T05:16:51.500Z,65
2023-11-01T05:17:57.226Z,64.87
2023-11-01T05:19:03.021Z,64.78
2023-11-01T05:20:08.608Z,64.83
2023-11-01T05:21:14.186Z,64.73
2023-11-01T05:22:20.671Z,64.71
2023-11-01T05:23:26.241Z,64.68
2023-11-01T05:24:31.776Z,64.69
2023-11-01T05:25:37.354Z,64.67
2023-11-01T05:26:42.999Z,64.41
2023-11-01T05:27:48.674Z,64.48
2023-11-01T05:28:54.191Z,64.46
2023-11-01T05:29:59.784Z,64.44
2023-11-01T05:31:07.867Z,64.45
2023-11-01T05:32:13.427Z,64.43
2023-11-01T05:33:22.738Z,64.45
2023-11-01T05:34:28.613Z,64.33
2023-11-01T05:35:34.595Z,64.3
2023-11-01T05:36:40.087Z,64.25
2023-11-01T05:37:45.736Z,64.3
2023-11-01T05:38:51.483Z,64.39
2023-11-01T05:39:57.004Z,64.36
2023-11-01T05:41:02.500Z,64.25
2023-11-01T05:42:08.026Z,64.29
2023-11-01T05:43:14.536Z,64.31
2023-11-01T05:44:20.171Z,64.37
2023-11-01T05:45:25.677Z,64.33
2023-11-01T05:46:31.261Z,64.35
2023-11-01T05:47:37.061Z,64.44
2023-11-01T05:48:42.710Z,64.41
2023-11-01T05:49:48.201Z,64.43
2023-11-01T05:50:53.861Z,64.4
2023-11-01T05:51:59.390Z,64.56
2023-11-01T05:53:04.887Z,64.55
2023-11-01T05:54:10.413Z,64.72
2023-11-01T05:55:38.496Z,64.71
2023-11-01T05:56:54.584Z,64.7
2023-11-01T05:58:00.097Z,64.86
2023-11-01T05:59:05.600Z,64.88
2023-11-01T06:00:11.098Z,65.03
2023-11-01T06:01:16.669Z,65.09
2023-11-01T06:02:22.395Z,64.94
2023-11-01T06:03:28.550Z,65.11
2023-11-01T06:04:34.290Z,65.12
2023-11-01T06:05:40.447Z,65.27
2023-11-01T06:06:46.009Z,65.23
2023-11-01T06:07:51.581Z,65.31
2023-11-01T06:08:57.160Z,65.48
2023-11-01T06:10:02.767Z,65.31
2023-11-01T06:11:08.240Z,65.38
2023-11-01T06:12:13.741Z,65.36
2023-11-01T06:13:19.221Z,65.37
2023-11-01T06:14:24.847Z,65.42
2023-11-01T06:15:30.530Z,65.49
2023-11-01T06:16:36.109Z,65.45
2023-11-01T06:17:41.870Z,65.42
2023-11-01T06:18:50.277Z,65.36
2023-11-01T06:19:55.785Z,65.48
2023-11-01T06:21:01.287Z,65.38
2023-11-01T06:22:06.824Z,65.53
2023-11-01T06:23:12.583Z,65.4
2023-11-01T06:24:18.098Z,65.6
2023-11-01T06:25:23.751Z,65.69
2023-11-01T06:26:29.305Z,65.48
2023-11-01T06:27:34.843Z,65.72
2023-11-01T06:28:40.344Z,65.72
2023-11-01T06:29:45.985Z,65.54
2023-11-01T06:30:51.640Z,65.59
2023-11-01T06:31:57.163Z,65.53
2023-11-01T06:33:03.232Z,65.63
2023-11-01T06:34:09.189Z,65.44
2023-11-01T06:35:14.744Z,65.47
2023-11-01T06:36:20.245Z,65.71
2023-11-01T06:37:25.779Z,66.24
2023-11-01T06:38:31.361Z,65.6
2023-11-01T06:39:36.922Z,66.05
2023-11-01T06:40:42.422Z,65.6
2023-11-01T06:41:48.054Z,65.84
2023-11-01T06:42:53.559Z,65.89
2023-11-01T06:43:59.051Z,65.61
2023-11-01T06:45:04.641Z,65.64
2023-11-01T06:46:10.350Z,65.41
2023-11-01T06:47:15.927Z,65.55
2023-11-01T06:48:21.769Z,65.76
2023-11-01T06:49:28.849Z,65.9
2023-11-01T06:50:36.523Z,65.94
2023-11-01T06:51:42.049Z,65.83
2023-11-01T06:52:47.547Z,65.94
2023-11-01T06:53:53.170Z,66.03
2023-11-01T06:54:58.670Z,65.75
2023-11-01T06:56:04.150Z,65.98
2023-11-01T06:57:10.061Z,65.83
2023-11-01T06:58:15.679Z,66.15
2023-11-01T06:59:21.378Z,65.99
2023-11-01T07:00:26.967Z,66.1
2023-11-01T07:01:32.506Z,65.87
2023-11-01T07:02:38.337Z,66.01
2023-11-01T07:03:44.299Z,66.2
2023-11-01T07:04:49.869Z,66.15
2023-11-01T07:05:55.526Z,65.99
2023-11-01T07:07:01.007Z,66.17
2023-11-01T07:08:06.619Z,66.21
2023-11-01T07:09:12.130Z,66.02
2023-11-01T07:10:17.739Z,65.91
2023-11-01T07:11:23.411Z,65.99
2023-11-01T07:12:28.914Z,66.16
2023-11-01T07:13:34.521Z,66.06
2023-11-01T07:14:40.175Z,66.01
2023-11-01T07:15:45.787Z,66
2023-11-01T07:16:51.301Z,66.12
2023-11-01T07:17:57.105Z,66.3
2023-11-01T07:19:02.710Z,66.06
2023-11-01T07:20:08.278Z,65.96
2023-11-01T07:21:13.769Z,66.04
2023-11-01T07:22:19.280Z,66.17
2023-11-01T07:23:24.793Z,66.19
2023-11-01T07:24:30.383Z,66.16
2023-11-01T07:25:35.858Z,66.3
2023-11-01T07:26:41.754Z,66.26
2023-11-01T07:27:47.314Z,66.19
2023-11-01T07:28:52.812Z,65.96
2023-11-01T07:29:58.514Z,65.99
2023-11-01T07:31:04.128Z,65.62
2023-11-01T07:32:09.653Z,65.73
2023-11-01T07:33:16.440Z,64.56
2023-11-01T07:34:22.041Z,64.76
2023-11-01T07:35:27.604Z,65.01
2023-11-01T07:36:33.125Z,64.36
2023-11-01T07:37:38.620Z,64.15
2023-11-01T07:38:46.635Z,64.07
2023-11-01T07:39:52.157Z,63.9
2023-11-01T07:40:57.635Z,63.96
2023-11-01T07:42:03.306Z,64.07
2023-11-01T07:43:08.802Z,64.03
2023-11-01T07:44:14.347Z,63.87
2023-11-01T07:45:19.908Z,63.76
2023-11-01T07:46:25.461Z,63.67
2023-11-01T07:47:31.145Z,63.77
2023-11-01T07:48:37.136Z,63.83
2023-11-01T07:49:42.705Z,63.84
2023-11-01T07:50:48.265Z,63.75
2023-11-01T07:51:53.782Z,63.65
2023-11-01T07:52:59.320Z,63.55
2023-11-01T07:54:04.900Z,63.53
2023-11-01T07:55:10.443Z,63.47
2023-11-01T07:56:15.952Z,63.5
2023-11-01T07:57:21.417Z,63.45
2023-11-01T07:58:26.909Z,63.41
2023-11-01T07:59:32.518Z,63.35
2023-11-01T08:00:38.037Z,63.35
2023-11-01T08:01:43.656Z,63.33
2023-11-01T08:02:49.551Z,63.36
2023-11-01T08:03:55.844Z,63.33
2023-11-01T08:05:01.492Z,63.32
2023-11-01T08:06:06.989Z,63.36
2023-11-01T08:07:13.678Z,63.34
2023-11-01T08:08:20.472Z,63.36
2023-11-01T08:09:26.062Z,63.27
2023-11-01T08:10:31.590Z,63.3
2023-11-01T08:11:37.196Z,63.3
2023-11-01T08:12:42.760Z,63.27
2023-11-01T08:13:48.243Z,63.14
2023-11-01T08:14:53.793Z,63.13
2023-11-01T08:15:59.404Z,63.16
2023-11-01T08:17:05.104Z,63.21
2023-11-01T08:18:10.803Z,63.12
2023-11-01T08:19:16.336Z,63.07
2023-11-01T08:20:21.896Z,63.04
2023-11-01T08:21:27.397Z,62.9
2023-11-01T08:22:33.095Z,62.98
2023-11-01T08:23:38.729Z,62.97
2023-11-01T08:24:44.219Z,63
2023-11-01T08:25:49.682Z,63
2023-11-01T08:26:55.304Z,63.02
2023-11-01T08:28:01.091Z,63.02
2023-11-01T08:29:06.578Z,63.02
2023-11-01T08:30:12.067Z,63
2023-11-01T08:31:17.554Z,63.02
2023-11-01T08:32:23.127Z,62.97
2023-11-01T08:33:29.152Z,62.97
2023-11-01T08:34:35.029Z,62.93
2023-11-01T08:35:40.599Z,62.81
2023-11-01T08:36:46.106Z,62.91
2023-11-01T08:37:51.590Z,62.81
2023-11-01T08:38:57.179Z,62.8
2023-11-01T08:40:02.779Z,62.79
2023-11-01T08:41:08.254Z,62.77
2023-11-01T08:42:13.781Z,62.66
2023-11-01T08:43:19.283Z,62.63
2023-11-01T08:44:24.875Z,62.68
2023-11-01T08:45:30.446Z,62.66
2023-11-01T08:46:36.076Z,62.69
2023-11-01T08:47:41.710Z,62.76
2023-11-01T08:48:47.236Z,62.85
2023-11-01T08:49:52.705Z,62.92
2023-11-01T08:50:58.378Z,62.87
2023-11-01T08:52:03.932Z,62.8
2023-11-01T08:53:09.416Z,62.63
2023-11-01T08:54:15.141Z,62.65
2023-11-01T08:55:20.704Z,62.65
2023-11-01T08:56:26.309Z,62.63
2023-11-01T08:57:31.963Z,62.63
2023-11-01T08:58:37.455Z,62.63
2023-11-01T08:59:43.093Z,62.61
2023-11-01T09:00:51.414Z,62.61
2023-11-01T09:02:15.936Z,62.59
2023-11-01T09:03:21.988Z,62.53
2023-11-01T09:04:27.613Z,62.5
2023-11-01T09:05:33.201Z,62.46
2023-11-01T09:06:38.809Z,62.42
2023-11-01T09:07:44.333Z,62.47
2023-11-01T09:08:49.938Z,62.41
2023-11-01T09:09:57.032Z,62.46
2023-11-01T09:11:04.047Z,62.53
2023-11-01T09:12:09.621Z,62.43
2023-11-01T09:13:15.127Z,62.37
2023-11-01T09:14:20.611Z,62.46
2023-11-01T09:15:26.106Z,62.35
2023-11-01T09:16:31.715Z,62.35
2023-11-01T09:17:37.493Z,62.33
2023-11-01T09:18:43.114Z,62.3
2023-11-01T09:19:48.686Z,62.29
2023-11-01T09:20:54.340Z,62.24
2023-11-01T09:21:59.919Z,62.2
2023-11-01T09:23:05.397Z,62.21
2023-11-01T09:24:10.915Z,62.22
2023-11-01T09:25:16.494Z,62.21
2023-11-01T09:26:21.975Z,62.2
2023-11-01T09:27:27.493Z,62.27
2023-11-01T09:28:32.959Z,62.23
2023-11-01T09:29:38.529Z,62.24
2023-11-01T09:30:44.208Z,62.19
2023-11-01T09:31:49.719Z,62.25
2023-11-01T09:32:55.611Z,62.22
2023-11-01T09:34:01.596Z,62.27
2023-11-01T09:35:07.169Z,62.19
2023-11-01T09:36:12.789Z,62.16
2023-11-01T09:37:18.326Z,62.12
2023-11-01T09:38:23.882Z,62.12
2023-11-01T09:39:29.445Z,62.13
2023-11-01T09:40:34.965Z,62.06
2023-11-01T09:41:40.574Z,62.1
2023-11-01T09:42:46.081Z,62.09
2023-11-01T09:43:51.622Z,62.07
2023-11-01T09:44:57.293Z,62.05
2023-11-01T09:46:02.899Z,62.04
2023-11-01T09:47:08.413Z,61.99
2023-11-01T09:48:14.267Z,61.99
2023-11-01T09:49:19.937Z,62
2023-11-01T09:50:25.934Z,61.99
2023-11-01T09:51:31.496Z,61.99
2023-11-01T09:52:38.806Z,61.94
2023-11-01T09:53:44.358Z,61.94
2023-11-01T09:54:49.871Z,61.93
2023-11-01T09:55:55.444Z,61.91
2023-11-01T09:57:01.161Z,61.9
2023-11-01T09:58:06.764Z,61.9
2023-11-01T09:59:12.553Z,61.89
2023-11-01T10:00:18.065Z,61.85
2023-11-01T10:01:23.626Z,61.84
2023-11-01T10:02:29.387Z,61.85
2023-11-01T10:03:35.157Z,61.85
2023-11-01T10:04:40.990Z,61.79
2023-11-01T10:05:46.684Z,61.8
2023-11-01T10:06:52.255Z,61.82
2023-11-01T10:07:57.752Z,61.81
2023-11-01T10:09:03.432Z,61.77
2023-11-01T10:10:08.980Z,61.76
2023-11-01T10:11:14.461Z,61.77
2023-11-01T10:12:19.953Z,61.77
2023-11-01T10:13:25.585Z,61.74
2023-11-01T10:14:31.231Z,61.76
2023-11-01T10:15:36.873Z,61.74
2023-11-01T10:16:42.591Z,61.71
2023-11-01T10:17:48.881Z,61.71
2023-11-01T10:18:54.729Z,61.7
2023-11-01T10:20:04.376Z,61.67
2023-11-01T10:21:10.127Z,61.69
2023-11-01T10:22:15.624Z,61.69
2023-11-01T10:23:21.099Z,61.69
2023-11-01T10:24:26.623Z,61.7
2023-11-01T10:25:32.110Z,61.66
2023-11-01T10:26:37.669Z,61.67
2023-11-01T10:27:43.218Z,61.69
2023-11-01T10:28:48.730Z,61.69
2023-11-01T10:29:54.352Z,61.68
2023-11-01T10:30:59.981Z,61.66
2023-11-01T10:32:05.519Z,61.67
2023-11-01T10:33:11.365Z,61.65
2023-11-01T10:34:17.219Z,61.65
2023-11-01T10:35:22.712Z,61.64
2023-11-01T10:36:28.261Z,61.65
2023-11-01T10:37:33.803Z,61.61
2023-11-01T10:38:40.365Z,61.65
2023-11-01T10:39:45.987Z,61.67
2023-11-01T10:40:51.457Z,61.66
2023-11-01T10:41:57.260Z,61.7
2023-11-01T10:43:02.919Z,61.69
2023-11-01T10:44:08.497Z,61.59
2023-11-01T10:45:14.056Z,61.6
2023-11-01T10:46:19.989Z,61.72
2023-11-01T10:47:25.562Z,61.64
2023-11-01T10:48:31.475Z,61.66
2023-11-01T10:49:37.104Z,61.64
2023-11-01T10:50:42.693Z,61.66
2023-11-01T10:51:48.409Z,61.65
2023-11-01T10:52:53.900Z,61.63
2023-11-01T10:53:59.888Z,61.61
2023-11-01T10:55:06.058Z,61.69
2023-11-01T10:56:11.670Z,61.62
2023-11-01T10:57:17.190Z,61.68
2023-11-01T10:58:22.667Z,61.77
2023-11-01T10:59:28.293Z,61.73
2023-11-01T11:00:33.791Z,61.77
2023-11-01T11:01:39.278Z,61.76
2023-11-01T11:02:45.200Z,61.7
2023-11-01T11:03:51.316Z,61.7
2023-11-01T11:04:57.020Z,61.7
2023-11-01T11:06:02.659Z,61.67
2023-11-01T11:07:26.130Z,61.6
2023-11-01T11:08:31.707Z,61.63
2023-11-01T11:09:37.229Z,61.64
2023-11-01T11:10:42.737Z,61.63
2023-11-01T11:11:48.281Z,61.61
2023-11-01T11:12:53.804Z,61.61
2023-11-01T11:13:59.360Z,61.57
2023-11-01T11:15:04.942Z,61.59
2023-11-01T11:16:10.596Z,61.59
2023-11-01T11:17:16.152Z,61.54
2023-11-01T11:18:21.730Z,61.53
2023-11-01T11:19:27.203Z,61.54
2023-11-01T11:20:32.804Z,61.58
2023-11-01T11:21:38.408Z,61.53
2023-11-01T11:22:43.875Z,61.51
2023-11-01T11:23:49.621Z,61.61
2023-11-01T11:24:55.331Z,61.61
2023-11-01T11:26:00.869Z,61.6
2023-11-01T11:27:06.429Z,61.68
2023-11-01T11:28:11.956Z,61.6
2023-11-01T11:29:17.439Z,61.69
2023-11-01T11:30:22.938Z,61.71
2023-11-01T11:31:28.575Z,61.66
2023-11-01T11:32:34.353Z,61.63
2023-11-01T11:33:40.232Z,61.65
2023-11-01T11:34:46.125Z,61.66
2023-11-01T11:35:51.816Z,61.65
2023-11-01T11:36:57.470Z,61.67
2023-11-01T11:38:02.951Z,61.63
2023-11-01T11:39:08.868Z,61.53
2023-11-01T11:40:14.372Z,61.57
2023-11-01T11:41:19.875Z,61.46
2023-11-01T11:42:25.377Z,61.51
2023-11-01T11:43:31.128Z,61.61
2023-11-01T11:44:36.749Z,61.63
2023-11-01T11:45:42.618Z,61.67
2023-11-01T11:46:48.200Z,61.64
2023-11-01T11:47:53.942Z,61.67
2023-11-01T11:48:59.497Z,61.77
2023-11-01T11:50:05.031Z,61.85
2023-11-01T11:51:10.526Z,61.74
2023-11-01T11:52:16.686Z,61.85
2023-11-01T11:53:25.938Z,61.66
2023-11-01T11:54:31.441Z,61.85
2023-11-01T11:55:36.903Z,61.8
2023-11-01T11:56:42.704Z,61.79
2023-11-01T11:57:48.267Z,61.75
2023-11-01T11:58:53.746Z,61.82
2023-11-01T11:59:59.457Z,61.77
2023-11-01T12:01:04.982Z,61.79
2023-11-01T12:02:10.629Z,61.77
2023-11-01T12:03:16.397Z,61.81
2023-11-01T12:04:22.116Z,61.75
2023-11-01T12:05:27.733Z,61.73
2023-11-01T12:06:33.217Z,61.8
2023-11-01T12:07:38.759Z,61.81
2023-11-01T12:08:44.469Z,61.79
2023-11-01T12:09:49.970Z,61.82
2023-11-01T12:10:55.508Z,61.87
2023-11-01T12:12:01.323Z,61.84
2023-11-01T12:13:06.798Z,61.82
2023-11-01T12:14:12.329Z,61.72
2023-11-01T12:15:17.884Z,61.84
2023-11-01T12:16:23.522Z,61.94
2023-11-01T12:17:29.302Z,61.89
2023-11-01T12:18:35.159Z,61.82
2023-11-01T12:19:40.689Z,61.85
2023-11-01T12:20:46.215Z,61.83
2023-11-01T12:21:51.752Z,61.81
2023-11-01T12:22:57.227Z,61.78
2023-11-01T12:24:02.845Z,61.75
2023-11-01T12:25:08.397Z,61.76
2023-11-01T12:26:13.968Z,61.73
2023-11-01T12:27:19.445Z,61.51
2023-11-01T12:28:25.007Z,61.58
2023-11-01T12:29:30.607Z,61.6
2023-11-01T12:30:36.180Z,61.59
2023-11-01T12:31:41.668Z,61.61
2023-11-01T12:32:47.433Z,61.6
2023-11-01T12:33:53.270Z,61.46
2023-11-01T12:34:58.887Z,61.59
2023-11-01T12:36:04.570Z,61.6
2023-11-01T12:37:11.214Z,61.54
2023-11-01T12:38:16.913Z,61.54
2023-11-01T12:39:22.395Z,61.53
2023-11-01T12:40:27.929Z,61.59
2023-11-01T12:41:33.550Z,61.56
2023-11-01T12:42:39.105Z,61.53
2023-11-01T12:43:44.608Z,61.56
2023-11-01T12:44:50.258Z,61.56
2023-11-01T12:45:55.834Z,61.39
2023-11-01T12:47:01.550Z,61.39
2023-11-01T12:48:07.280Z,61.44
2023-11-01T12:49:12.816Z,61.46
2023-11-01T12:50:18.319Z,61.28
2023-11-01T12:51:23.861Z,61.48
2023-11-01T12:52:29.439Z,61.49
2023-11-01T12:53:35.060Z,61.47
2023-11-01T12:54:40.547Z,61.48
2023-11-01T12:55:46.085Z,61.45
2023-11-01T12:56:52.729Z,61.49
2023-11-01T12:57:58.526Z,61.53
2023-11-01T12:59:04.026Z,61.51
2023-11-01T13:00:09.832Z,61.43
2023-11-01T13:01:15.710Z,61.43
2023-11-01T13:02:21.217Z,61.51
2023-11-01T13:03:27.128Z,61.5
2023-11-01T13:04:32.918Z,61.45
2023-11-01T13:05:38.542Z,61.48
2023-11-01T13:06:44.137Z,61.37
2023-11-01T13:07:50.060Z,61.52
2023-11-01T13:08:56.370Z,61.45
2023-11-01T13:10:01.887Z,61.44
2023-11-01T13:11:07.393Z,61.46
2023-11-01T13:12:12.909Z,61.49
2023-11-01T13:13:18.425Z,61.5
2023-11-01T13:14:23.943Z,61.52
2023-11-01T13:15:30.023Z,61.51
2023-11-01T13:16:35.691Z,61.53
2023-11-01T13:17:41.353Z,61.51
2023-11-01T13:18:47.131Z,61.54
2023-11-01T13:19:52.729Z,61.48
2023-11-01T13:20:58.318Z,61.52
2023-11-01T13:22:03.824Z,61.52
2023-11-01T13:23:09.420Z,61.44
2023-11-01T13:24:14.917Z,61.54
2023-11-01T13:25:20.398Z,61.58
2023-11-01T13:26:25.871Z,61.58
2023-11-01T13:27:31.429Z,61.54
2023-11-01T13:28:36.989Z,61.58
2023-11-01T13:29:42.593Z,61.58
2023-11-01T13:30:48.302Z,61.58
2023-11-01T13:31:57.202Z,61.59
2023-11-01T13:33:02.908Z,61.57
2023-11-01T13:34:08.490Z,61.52
2023-11-01T13:35:14.015Z,61.54
2023-11-01T13:36:19.512Z,61.53
2023-11-01T13:37:25.017Z,61.48
2023-11-01T13:38:30.513Z,61.37
2023-11-01T13:39:36.220Z,61.41
2023-11-01T13:40:41.715Z,61.12
2023-11-01T13:41:47.285Z,60.94
2023-11-01T13:42:52.788Z,60.92
2023-11-01T13:43:58.274Z,60.83
2023-11-01T13:45:03.989Z,60.81
2023-11-01T13:46:09.677Z,60.73
2023-11-01T13:47:15.445Z,60.7
2023-11-01T13:48:21.220Z,60.68
2023-11-01T13:49:26.763Z,60.68
2023-11-01T13:50:32.315Z,60.7
2023-11-01T13:51:37.790Z,60.69
2023-11-01T13:52:43.294Z,60.66
2023-11-01T13:53:49.009Z,60.69
2023-11-01T13:54:54.601Z,60.75
2023-11-01T13:56:02.587Z,60.79
2023-11-01T13:57:08.201Z,60.73
2023-11-01T13:58:13.783Z,60.72
2023-11-01T13:59:20.296Z,60.75
2023-11-01T14:00:26.781Z,60.71
2023-11-01T14:01:32.345Z,60.74
2023-11-01T14:02:38.377Z,60.71
2023-11-01T14:03:44.359Z,60.79
2023-11-01T14:04:50.042Z,60.78
2023-11-01T14:05:55.698Z,60.87
2023-11-01T14:07:01.216Z,60.83
2023-11-01T14:08:06.691Z,60.79
2023-11-01T14:09:12.360Z,60.85
2023-11-01T14:10:17.854Z,60.89
2023-11-01T14:11:27.414Z,60.93